TimeEST,TemperatureF,Dew PointF,Humidity,Sea Level PressureIn,VisibilityMPH,Wind Direction,Wind SpeedMPH,Gust SpeedMPH,PrecipitationIn,Events,Conditions,WindDirDegrees,DateUTC
12:54 AM,9.0,1.0,70,30.21,10.0,Calm,Calm,-,N/A,,Clear,0,2014-02-08 05:54:00
1:54 AM,12.9,-2.9,49,30.21,10.0,Variable,3.5,-,N/A,,Clear,0,2014-02-08 06:54:00
2:54 AM,14.0,-4.0,45,30.22,10.0,West,10.4,-,N/A,,Clear,280,2014-02-08 07:54:00
3:54 AM,6.1,-4.0,63,30.24,10.0,Calm,Calm,-,N/A,,Clear,0,2014-02-08 08:54:00
4:54 AM,3.0,-5.1,69,30.26,10.0,Calm,Calm,-,N/A,,Clear,0,2014-02-08 09:54:00
5:54 AM,1.9,-4.0,76,30.27,10.0,Calm,Calm,-,N/A,,Clear,0,2014-02-08 10:54:00
6:54 AM,-0.9,-6.0,79,30.29,10.0,Calm,Calm,-,N/A,,Clear,0,2014-02-08 11:54:00
7:54 AM,-0.0,-4.0,83,30.30,-9999.0,Calm,Calm,-,N/A,,Unknown,0,2014-02-08 12:54:00
8:54 AM,6.1,-2.0,69,30.29,10.0,Calm,Calm,-,N/A,,Partly Cloudy,0,2014-02-08 13:54:00
9:54 AM,14.0,1.0,56,30.29,10.0,East,4.6,-,N/A,,Clear,90,2014-02-08 14:54:00
10:54 AM,18.0,1.0,48,30.27,10.0,ESE,3.5,-,N/A,,Clear,120,2014-02-08 15:54:00
11:54 AM,19.0,1.9,47,30.23,10.0,SE,3.5,-,N/A,,Clear,140,2014-02-08 16:54:00
12:54 PM,21.9,-0.0,38,30.19,10.0,West,4.6,-,N/A,,Clear,260,2014-02-08 17:54:00
1:54 PM,24.1,-0.0,35,30.17,10.0,West,12.7,18.4,N/A,,Clear,270,2014-02-08 18:54:00
2:54 PM,24.1,-0.0,35,30.18,10.0,WNW,10.4,-,N/A,,Clear,290,2014-02-08 19:54:00
3:54 PM,24.1,1.0,37,30.18,10.0,WNW,6.9,-,N/A,,Clear,300,2014-02-08 20:54:00
4:54 PM,23.0,1.9,40,30.19,10.0,Variable,3.5,-,N/A,,Partly Cloudy,0,2014-02-08 21:54:00
5:54 PM,21.9,3.0,44,30.20,-9999.0,WNW,3.5,-,N/A,,Unknown,300,2014-02-08 22:54:00
6:54 PM,21.0,5.0,50,30.20,10.0,West,4.6,-,N/A,,Overcast,270,2014-02-08 23:54:00
7:54 PM,19.9,3.9,50,30.18,10.0,Calm,Calm,-,N/A,,Overcast,0,2014-02-09 00:54:00
8:54 PM,19.9,3.9,50,30.17,10.0,Calm,Calm,-,N/A,,Mostly Cloudy,0,2014-02-09 01:54:00
9:54 PM,16.0,7.0,68,30.17,10.0,Calm,Calm,-,N/A,,Overcast,0,2014-02-09 02:54:00
10:54 PM,17.1,7.0,65,30.17,10.0,Calm,Calm,-,N/A,,Overcast,0,2014-02-09 03:54:00
11:54 PM,18.0,6.1,60,30.16,10.0,Calm,Calm,-,N/A,,Overcast,0,2014-02-09 04:54:00